Terminal Aerodrome Forecast
Issued by NWS

Home | Current Version | Previous Version | Text Only | Print | Product List | Glossary On
Versions: 1 2 3 4 5 6 7 8 9 10 11 12 13
000
FTUS43 KICT 210520
TAFCNU
TAF
KCNU 210520Z 2106/2206 20015KT P6SM BKN250
     FM211200 21009KT P6SM BKN150
     FM211400 29008KT P6SM BKN120
     FM211800 35015G22KT P6SM BKN100
     FM220000 36011KT P6SM SCT250
     FM220300 01007KT P6SM SKC=

USA.gov is the U.S. government's official web portal to all federal, state and local government web resources and services.